Huntington Lake, California
Current Conditions -  °F | °C
As of 3:15 AM on Saturday 01 Nov 2014 (Local Time) from KMMH Reporting Station
Overcast Overcast  
Wind Chill: 34°   Ceiling: 4700
Heat Index: 34°   Visibility: 10mi
Dew Point: 34°   Wind: 3mph
Humidity: 100%   Direction: 120°ESE
Pressure: 29.66"   Gusts: NA
Location:  37.23°N, 119.23°W
Report Text: KMMH 011015Z AUTO 12003KT 10SM SCT036 BKN047 OVC050 01/01 A2966 RMK AO1
Loading
Personal Weather Stations






























Interactive Weather Map
Tropical Storm Tracking
New forecast layout! Learn more

10-Day Weather Forecast

Advertisements
Track Severe Weather on mobile